Time;durP1;ratioP1;P1;durP2;ratioP2;P2;SDS_P1;SDS_P2;PMS_P1;PMS_P2;Temp;Humidity;BMP_temperature;BMP_pressure;BME280_temperature;BME280_humidity;BME280_pressure;Samples;Min_cycle;Max_cycle;Signal;HPM_P1;HPM_P2
2023/01/13 00:01:51;;;;;;;30.58;5.82;;;;;;;;;;4990996;28;20169;-63
2023/01/13 00:04:17;;;;;;;20.65;4.93;;;;;;;;;;4990670;28;20043;-63
2023/01/13 00:06:43;;;;;;;29.02;4.60;;;;;;;;;;4992246;28;20050;-64
2023/01/13 00:09:09;;;;;;;33.65;6.32;;;;;;;;;;4991861;28;20061;-63
2023/01/13 00:11:35;;;;;;;21.27;4.05;;;;;;;;;;4975349;28;20058;-63
2023/01/13 00:14:01;;;;;;;25.08;4.78;;;;;;;;;;4973860;28;20058;-63
2023/01/13 00:16:28;;;;;;;25.58;4.25;;;;;;;;;;4991550;28;20043;-63
2023/01/13 00:18:54;;;;;;;38.53;5.53;;;;;;;;;;4991909;28;20133;-63
2023/01/13 00:21:22;;;;;;;32.15;4.80;;;;;;;;;;4974979;28;20084;-63
2023/01/13 00:23:48;;;;;;;32.83;4.88;;;;;;;;;;4981008;28;20050;-63
2023/01/13 00:26:24;;;;;;;42.22;6.20;;;;;;;;;;4973071;28;20102;-63
2023/01/13 00:28:50;;;;;;;36.92;5.40;;;;;;;;;;4955313;28;20081;-63
2023/01/13 00:31:18;;;;;;;32.05;6.45;;;;;;;;;;4968573;28;20046;-64
2023/01/13 00:33:45;;;;;;;29.45;5.82;;;;;;;;;;4975102;28;20454;-63
2023/01/13 00:36:12;;;;;;;46.05;6.93;;;;;;;;;;4958786;28;20043;-63
2023/01/13 00:38:38;;;;;;;35.75;4.82;;;;;;;;;;4976386;28;20053;-63
2023/01/13 00:41:05;;;;;;;28.63;4.60;;;;;;;;;;4976586;28;20487;-62
2023/01/13 00:43:32;;;;;;;32.95;5.90;;;;;;;;;;4958520;28;20042;-63
2023/01/13 00:45:59;;;;;;;31.33;5.07;;;;;;;;;;4991954;28;20589;-63
2023/01/13 00:48:25;;;;;;;42.53;6.38;;;;;;;;;;4994367;28;20398;-63
2023/01/13 00:50:56;;;;;;;35.03;6.20;;;;;;;;;;4974435;28;20053;-63
2023/01/13 00:53:22;;;;;;;50.58;7.95;;;;;;;;;;4976071;28;20074;-63
2023/01/13 00:55:48;;;;;;;34.20;4.97;;;;;;;;;;4976225;28;20069;-63
2023/01/13 00:58:14;;;;;;;21.35;4.18;;;;;;;;;;4976082;28;20558;-63
2023/01/13 01:00:41;;;;;;;30.45;4.47;;;;;;;;;;4958053;28;20532;-64
2023/01/13 01:03:11;;;;;;;27.55;4.25;;;;;;;;;;4975838;28;20054;-62
2023/01/13 01:05:38;;;;;;;38.95;4.97;;;;;;;;;;4976067;28;20053;-63
2023/01/13 01:08:04;;;;;;;25.58;4.53;;;;;;;;;;4976048;28;20097;-63
2023/01/13 01:10:30;;;;;;;28.65;4.72;;;;;;;;;;4976870;28;20446;-62
2023/01/13 01:12:56;;;;;;;34.40;6.15;;;;;;;;;;4977989;28;20050;-63
2023/01/13 01:15:22;;;;;;;30.92;5.38;;;;;;;;;;4982993;28;20403;-63
2023/01/13 01:17:48;;;;;;;31.48;5.70;;;;;;;;;;4977644;28;20134;-63
2023/01/13 01:20:15;;;;;;;30.52;5.05;;;;;;;;;;4979713;28;20062;-63
2023/01/13 01:22:41;;;;;;;37.42;5.60;;;;;;;;;;4975397;28;20039;-64
2023/01/13 01:25:07;;;;;;;28.50;4.43;;;;;;;;;;4975221;28;20053;-63
2023/01/13 01:27:33;;;;;;;30.52;4.82;;;;;;;;;;4974955;28;20062;-62
2023/01/13 01:29:59;;;;;;;34.53;4.22;;;;;;;;;;4972480;28;20056;-63
2023/01/13 01:32:25;;;;;;;25.58;4.50;;;;;;;;;;4995428;28;20129;-62
2023/01/13 01:34:51;;;;;;;27.60;3.72;;;;;;;;;;4977277;28;20080;-63
2023/01/13 01:37:17;;;;;;;32.95;6.55;;;;;;;;;;4995271;28;20046;-63
2023/01/13 01:39:43;;;;;;;42.75;5.25;;;;;;;;;;4979665;28;20521;-63
2023/01/13 01:45:02;;;;;;;30.20;4.65;;;;;;;;;;4973024;28;20042;-63
2023/01/13 01:47:30;;;;;;;38.80;5.50;;;;;;;;;;4994426;28;20050;-63
2023/01/13 01:49:57;;;;;;;50.33;7.13;;;;;;;;;;4994806;28;20516;-62
2023/01/13 01:52:32;;;;;;;38.00;4.90;;;;;;;;;;4977434;28;20418;-63
2023/01/13 01:55:05;;;;;;;24.17;5.82;;;;;;;;;;4973880;28;20498;-63
2023/01/13 01:57:37;;;;;;;27.65;5.07;;;;;;;;;;4970153;28;20074;-64
2023/01/13 02:00:04;;;;;;;41.47;5.32;;;;;;;;;;4975037;28;20055;-62
2023/01/13 02:02:30;;;;;;;32.35;4.97;;;;;;;;;;4974834;28;20050;-62
2023/01/13 02:04:56;;;;;;;30.50;4.32;;;;;;;;;;4986739;28;20042;-62
2023/01/13 02:07:25;;;;;;;25.58;4.10;;;;;;;;;;4959637;28;20050;-62
2023/01/13 02:09:52;;;;;;;34.70;6.35;;;;;;;;;;4994509;28;20048;-63
2023/01/13 02:12:33;;;;;;;31.67;4.80;;;;;;;;;;4990156;28;20051;-62
2023/01/13 02:15:10;;;;;;;29.08;5.50;;;;;;;;;;4977795;28;20469;-63
2023/01/13 02:17:39;;;;;;;31.98;4.57;;;;;;;;;;4974287;28;20126;-62
2023/01/13 02:20:35;;;;;;;37.75;5.15;;;;;;;;;;4980653;28;20047;-63
2023/01/13 02:23:04;;;;;;;37.90;5.03;;;;;;;;;;4961278;28;20042;-62
2023/01/13 02:25:33;;;;;;;37.65;5.43;;;;;;;;;;4957574;28;20047;-62
2023/01/13 02:28:28;;;;;;;35.72;4.93;;;8.50;99.90;;;;;;4957507;28;20196;-62
2023/01/13 02:34:04;;;;;;;37.85;5.30;;;;;;;;;;4975771;28;20055;-63
2023/01/13 02:36:59;;;;;;;23.08;3.95;;;8.10;99.90;;;;;;4974219;28;20105;-63
2023/01/13 02:39:25;;;;;;;32.78;5.15;;;;;;;;;;4951614;28;20491;-63
2023/01/13 02:44:48;;;;;;;28.55;3.83;;;;;;;;;;4976944;28;20050;-63
2023/01/13 02:47:26;;;;;;;24.60;4.40;;;;;;;;;;4978342;28;20043;-62
2023/01/13 02:49:55;;;;;;;30.35;5.00;;;;;;;;;;4973978;28;20054;-63
2023/01/13 02:54:58;;;;;;;26.65;3.55;;;;;;;;;;4996371;23;20089;-63
2023/01/13 02:57:25;;;;;;;32.22;4.25;;;;;;;;;;4993773;28;20082;-62
2023/01/13 02:59:53;;;;;;;34.70;6.45;;;;;;;;;;4991580;28;20388;-63
2023/01/13 03:02:21;;;;;;;25.88;4.10;;;;;;;;;;4993585;28;20054;-63
2023/01/13 03:04:50;;;;;;;26.13;4.50;;;;;;;;;;4992011;28;20050;-63
2023/01/13 03:07:28;;;;;;;25.35;4.10;;;;;;;;;;4993234;28;20073;-62
2023/01/13 03:10:04;;;;;;;30.90;4.85;;;;;;;;;;4973892;28;20541;-63
2023/01/13 03:12:44;;;;;;;23.67;4.45;;;;;;;;;;4974124;28;20051;-62
2023/01/13 03:15:10;;;;;;;28.45;5.15;;;;;;;;;;4984427;28;20046;-63
2023/01/13 03:17:43;;;;;;;27.30;4.68;;;;;;;;;;4992253;28;20042;-62
2023/01/13 03:20:16;;;;;;;23.20;5.75;;;;;;;;;;4993028;28;20454;-62
2023/01/13 03:22:42;;;;;;;30.95;3.80;;;;;;;;;;4992679;28;20054;-63
2023/01/13 03:25:14;;;;;;;33.15;4.55;;;;;;;;;;4992389;28;20042;-62
2023/01/13 03:28:03;;;;;;;24.25;4.70;;;8.60;99.90;;;;;;4992634;28;20038;-63
2023/01/13 03:30:35;;;;;;;34.58;4.15;;;;;;;;;;4982960;28;20058;-62
2023/01/13 03:33:09;;;;;;;29.20;3.35;;;;;;;;;;4990232;28;20042;-63
2023/01/13 03:35:37;;;;;;;34.92;5.60;;;;;;;;;;4992933;28;20054;-62
2023/01/13 03:38:06;;;;;;;19.40;4.28;;;;;;;;;;4992009;28;20108;-62
2023/01/13 03:40:35;;;;;;;36.45;5.20;;;;;;;;;;4993029;28;20588;-62
2023/01/13 03:45:52;;;;;;;25.00;5.22;;;;;;;;;;4992630;28;20042;-63
2023/01/13 03:48:19;;;;;;;32.70;4.20;;;;;;;;;;4992188;28;20050;-62
2023/01/13 03:50:48;;;;;;;22.63;3.88;;;;;;;;;;4992390;28;20293;-62
2023/01/13 03:53:17;;;;;;;31.27;4.50;;;;;;;;;;4991957;28;20113;-62
2023/01/13 03:55:46;;;;;;;38.50;5.05;;;;;;;;;;4989136;28;20050;-62
2023/01/13 03:58:17;;;;;;;29.38;4.55;;;;;;;;;;4991935;28;20054;-62
2023/01/13 04:00:55;;;;;;;23.13;4.18;;;;;;;;;;4991312;28;20495;-63
2023/01/13 04:03:31;;;;;;;33.45;5.35;;;;;;;;;;4991821;28;20061;-62
2023/01/13 04:06:00;;;;;;;37.45;6.18;;;;;;;;;;4992168;28;20073;-62
2023/01/13 04:08:27;;;;;;;31.25;4.75;;;;;;;;;;4995208;28;20042;-62
2023/01/13 04:10:59;;;;;;;27.42;5.22;;;;;;;;;;4995198;28;20042;-62
2023/01/13 04:13:28;;;;;;;33.30;3.55;;;;;;;;;;4995373;28;20046;-62
2023/01/13 04:15:54;;;;;;;32.10;8.10;;;;;;;;;;4995516;28;20054;-62
2023/01/13 04:18:22;;;;;;;34.55;4.78;;;;;;;;;;4995616;28;20057;-62
2023/01/13 04:20:49;;;;;;;27.65;3.75;;;;;;;;;;4995407;28;20054;-62
2023/01/13 04:23:16;;;;;;;21.70;4.32;;;;;;;;;;4995417;28;20057;-63
2023/01/13 04:25:42;;;;;;;27.58;5.38;;;;;;;;;;4994791;28;20080;-63
2023/01/13 04:28:09;;;;;;;27.25;4.50;;;;;;;;;;4995975;28;20050;-62
2023/01/13 04:30:36;;;;;;;31.02;6.00;;;;;;;;;;4996240;28;20053;-62
2023/01/13 04:33:03;;;;;;;34.30;6.65;;;;;;;;;;4995213;28;20064;-62
2023/01/13 04:35:29;;;;;;;24.02;3.83;;;;;;;;;;4996690;28;20070;-62
2023/01/13 04:37:55;;;;;;;29.15;5.00;;;;;;;;;;4995122;28;20058;-62
2023/01/13 04:40:21;;;;;;;27.70;4.65;;;;;;;;;;4995381;28;20101;-62
2023/01/13 04:42:47;;;;;;;32.45;6.57;;;;;;;;;;4994078;28;20061;-62
2023/01/13 04:45:13;;;;;;;40.05;4.60;;;;;;;;;;4995959;28;20042;-62
2023/01/13 04:47:43;;;;;;;26.77;3.28;;;;;;;;;;4995692;28;20457;-63
2023/01/13 04:50:10;;;;;;;32.95;5.03;;;;;;;;;;4995778;28;20053;-62
2023/01/13 04:52:36;;;;;;;28.92;3.88;;;;;;;;;;4996087;28;20483;-62
2023/01/13 04:55:02;;;;;;;32.05;4.28;;;;;;;;;;4994153;28;20062;-62
2023/01/13 04:57:28;;;;;;;29.92;5.70;;;;;;;;;;4994416;28;20047;-62
2023/01/13 04:59:54;;;;;;;26.38;4.40;;;;;;;;;;4994164;28;20125;-62
2023/01/13 05:02:20;;;;;;;22.92;3.75;;;;;;;;;;4978702;28;20050;-62
2023/01/13 05:04:47;;;;;;;21.10;4.10;;;;;;;;;;4991992;28;20038;-62
2023/01/13 05:07:14;;;;;;;27.30;5.35;;;;;;;;;;4995407;28;20058;-62
2023/01/13 05:09:40;;;;;;;23.05;4.47;;;;;;;;;;4995357;28;20053;-63
2023/01/13 05:17:35;;;;;;;28.45;4.65;;;;;;;;;;4995395;28;20054;-62
2023/01/13 05:20:02;;;;;;;31.95;4.80;;;;;;;;;;4995271;28;20054;-62
2023/01/13 05:25:23;;;;;;;24.25;4.10;;;;;;;;;;4994494;28;20057;-62
2023/01/13 05:27:49;;;;;;;26.98;3.85;;;;;;;;;;4995202;28;20434;-62
2023/01/13 05:30:16;;;;;;;25.73;3.78;;;;;;;;;;4993710;28;20050;-62
2023/01/13 05:32:45;;;;;;;35.10;4.77;;;;;;;;;;4994685;28;20053;-62
2023/01/13 05:35:11;;;;;;;25.23;4.00;;;;;;;;;;4992518;28;20061;-62
2023/01/13 05:37:38;;;;;;;28.20;3.95;;;;;;;;;;4975879;28;20407;-62
2023/01/13 05:45:45;;;;;;;28.65;5.82;;;;;;;;;;4994728;28;20410;-62
2023/01/13 05:48:11;;;;;;;27.15;3.35;;;;;;;;;;4993742;28;20054;-63
2023/01/13 05:50:37;;;;;;;20.45;3.13;;;;;;;;;;4994918;28;20123;-63
2023/01/13 05:53:04;;;;;;;30.55;4.10;;;;;;;;;;4993074;28;20054;-63
2023/01/13 05:55:34;;;;;;;42.03;5.85;;;;;;;;;;5002035;23;20050;-63
2023/01/13 05:58:00;;;;;;;24.87;4.67;;;;;;;;;;5021279;23;20084;-62
2023/01/13 06:00:26;;;;;;;14.43;3.13;;;;;;;;;;5034742;23;20062;-62
2023/01/13 06:02:52;;;;;;;26.10;3.35;;;;;;;;;;4992700;28;20061;-62
2023/01/13 06:05:18;;;;;;;31.38;5.68;;;;;;;;;;4994393;28;20042;-62
2023/01/13 06:07:44;;;;;;;23.45;4.07;;;;;;;;;;4993905;28;20092;-63
2023/01/13 06:10:26;;;;;;;18.45;3.25;;;;;;;;;;5002704;23;20065;-63
2023/01/13 06:13:00;;;;;;;23.30;3.67;;;;;;;;;;5023252;23;20115;-62
2023/01/13 06:15:26;;;;;;;17.75;3.33;;;;;;;;;;5009365;28;20068;-62
2023/01/13 06:17:53;;;;;;;13.27;2.17;;;;;;;;;;5012738;28;20046;-62
2023/01/13 06:20:19;;;;;;;16.33;2.17;;;;;;;;;;5013104;28;20145;-62
2023/01/13 06:22:47;;;;;;;24.27;3.00;;;;;;;;;;5012916;28;20045;-63
2023/01/13 06:25:21;;;;;;;18.73;2.40;;;;;;;;;;4993444;28;20046;-62
2023/01/13 06:27:47;;;;;;;12.25;2.65;;;;;;;;;;5012467;28;20053;-62
2023/01/13 06:30:13;;;;;;;20.35;4.40;;;;;;;;;;5010087;28;20053;-62
2023/01/13 06:32:43;;;;;;;12.43;2.72;;;;;;;;;;5010004;28;20168;-63
2023/01/13 06:35:12;;;;;;;18.70;2.90;;;;;;;;;;4994568;28;20048;-62
2023/01/13 06:37:39;;;;;;;14.45;2.80;;;;;;;;;;5012457;28;20135;-62
2023/01/13 06:40:06;;;;;;;13.18;2.05;;;;;;;;;;5011865;28;20046;-62
2023/01/13 06:45:18;;;;;;;19.48;2.85;;;;;;;;;;5009793;28;20088;-62
2023/01/13 06:47:44;;;;;;;17.45;2.67;;;;;;;;;;4992856;28;20046;-62
2023/01/13 06:50:10;;;;;;;20.73;3.40;;;;;;;;;;5011718;28;20053;-62
2023/01/13 06:52:36;;;;;;;18.42;2.88;;;;;;;;;;5009651;28;20050;-62
2023/01/13 06:55:03;;;;;;;25.98;3.92;;;;;;;;;;4993537;28;20046;-61
2023/01/13 06:57:29;;;;;;;28.77;3.63;;;;;;;;;;4992515;28;20104;-61
2023/01/13 06:59:55;;;;;;;22.27;3.88;;;;;;;;;;5011354;28;20085;-62
2023/01/13 07:02:21;;;;;;;27.05;3.70;;;;;;;;;;5010096;28;20402;-61
2023/01/13 07:04:47;;;;;;;25.23;2.92;;;;;;;;;;5010739;28;20782;-62
2023/01/13 07:07:13;;;;;;;30.10;3.75;;;;;;;;;;5005213;28;20050;-62
2023/01/13 07:09:39;;;;;;;22.33;3.55;;;;;;;;;;5006287;28;20046;-63
2023/01/13 07:12:06;;;;;;;16.42;2.60;;;;;;;;;;5010387;28;20417;-62
2023/01/13 07:17:23;;;;;;;19.23;3.42;;;;;;;;;;5008424;28;21669;-62
2023/01/13 07:19:50;;;;;;;22.58;3.65;;;;;;;;;;4994718;28;20049;-62
2023/01/13 07:22:16;;;;;;;23.25;3.42;;;;;;;;;;5012489;28;20068;-62
2023/01/13 07:24:42;;;;;;;22.95;3.22;;;;;;;;;;5012407;28;20054;-62
2023/01/13 07:27:08;;;;;;;23.52;4.80;;;;;;;;;;4995521;28;20050;-62
2023/01/13 07:29:34;;;;;;;22.60;3.05;;;;;;;;;;5000639;28;20081;-62
2023/01/13 07:32:00;;;;;;;24.75;3.92;;;;;;;;;;5011536;28;20045;-62
2023/01/13 07:34:26;;;;;;;22.90;4.28;;;;;;;;;;5012067;28;20046;-62
2023/01/13 07:36:52;;;;;;;14.35;2.92;;;;;;;;;;4974950;28;20057;-62
2023/01/13 07:39:18;;;;;;;23.23;4.53;;;;;;;;;;4998641;28;20088;-62
2023/01/13 07:44:29;;;;;;;29.15;3.70;;;;;;;;;;4993430;28;20081;-62
2023/01/13 07:46:55;;;;;;;21.92;4.43;;;;;;;;;;5012048;28;20050;-62
2023/01/13 07:49:21;;;;;;;25.92;4.40;;;;;;;;;;5011303;28;20053;-62
2023/01/13 07:51:47;;;;;;;17.02;3.33;;;;;;;;;;4991383;28;20050;-62
2023/01/13 07:54:13;;;;;;;18.63;4.10;;;;;;;;;;5011493;28;20088;-62
2023/01/13 07:56:39;;;;;;;23.50;4.07;;;;;;;;;;5010902;28;20456;-63
2023/01/13 07:59:05;;;;;;;17.33;3.38;;;;;;;;;;4994687;28;20506;-62
2023/01/13 08:01:31;;;;;;;24.27;4.95;;;;;;;;;;5009874;28;20082;-62
2023/01/13 08:03:57;;;;;;;25.83;4.07;;;;;;;;;;5011301;28;20046;-62
2023/01/13 08:06:24;;;;;;;26.75;4.22;;;;;;;;;;4994026;28;20042;-62
2023/01/13 08:08:50;;;;;;;22.92;3.97;;;;;;;;;;5010649;28;20092;-62
2023/01/13 08:11:17;;;;;;;17.95;3.15;;;;;;;;;;5007616;28;20401;-62
2023/01/13 08:13:43;;;;;;;9.15;3.03;;;;;;;;;;5008407;28;20561;-63
2023/01/13 08:16:12;;;;;;;16.33;4.93;;;;;;;;;;5010362;28;20519;-62
2023/01/13 08:18:38;;;;;;;19.65;4.05;;;;;;;;;;5008208;28;20486;-62
2023/01/13 08:21:09;;;;;;;25.05;4.40;;;;;;;;;;5008628;28;20176;-62
2023/01/13 08:23:35;;;;;;;19.77;3.65;;;;;;;;;;5010016;28;20060;-62
2023/01/13 08:26:02;;;;;;;28.95;3.63;;;;;;;;;;5006569;28;20073;-62
2023/01/13 08:28:28;;;;;;;19.60;3.70;;;;;;;;;;4994248;28;20041;-62
2023/01/13 08:30:55;;;;;;;25.05;4.35;;;;;;;;;;5009107;28;20073;-62
2023/01/13 08:33:21;;;;;;;22.60;4.20;;;;;;;;;;4988687;28;20544;-63
2023/01/13 08:35:47;;;;;;;23.77;3.75;;;;;;;;;;5001325;28;20054;-63
2023/01/13 08:38:13;;;;;;;33.10;5.43;;;;;;;;;;5020685;28;20050;-62
2023/01/13 08:40:40;;;;;;;25.05;5.18;;;;;;;;;;5009921;28;20053;-64
2023/01/13 08:43:06;;;;;;;27.95;4.68;;;;;;;;;;5011680;28;20084;-63
2023/01/13 08:45:32;;;;;;;36.15;5.82;;;;;;;;;;5008516;28;20077;-63
2023/01/13 08:47:58;;;;;;;28.33;4.95;;;;;;;;;;4999589;28;20042;-62
2023/01/13 08:50:24;;;;;;;14.43;2.72;;;;;;;;;;5011929;28;20049;-62
2023/01/13 08:52:50;;;;;;;32.13;6.65;;;;;;;;;;5013005;28;20046;-62
2023/01/13 08:55:16;;;;;;;24.15;4.63;;;;;;;;;;5015550;28;20141;-62
2023/01/13 08:57:42;;;;;;;21.98;5.25;;;;;;;;;;5014522;28;20056;-62
2023/01/13 09:00:09;;;;;;;21.80;3.42;;;;;;;;;;5012427;28;20536;-62
2023/01/13 09:02:35;;;;;;;17.83;2.78;;;;;;;;;;5014053;28;20565;-62
2023/01/13 09:05:02;;;;;;;21.13;4.63;;;;;;;;;;5009858;28;20527;-62
2023/01/13 09:07:29;;;;;;;26.52;4.60;;;;;;;;;;5015226;28;20085;-62
2023/01/13 09:09:55;;;;;;;20.25;3.85;;;;;;;;;;5015367;28;20100;-61
2023/01/13 09:15:07;;;;;;;26.88;3.70;;;;;;;;;;5005056;28;20042;-61
2023/01/13 09:17:33;;;;;;;26.15;4.60;;;;;;;;;;5014409;28;20486;-62
2023/01/13 09:19:59;;;;;;;25.45;4.25;;;;;;;;;;4992253;23;20074;-62
2023/01/13 09:22:28;;;;;;;26.35;4.90;;;;;;;;;;4972787;28;20066;-62
2023/01/13 09:24:54;;;;;;;20.40;3.40;;;;;;;;;;4971559;28;20398;-63
2023/01/13 09:27:20;;;;;;;23.85;5.47;;;;;;;;;;4975455;28;20057;-62
2023/01/13 09:29:46;;;;;;;26.77;4.25;;;;;;;;;;4957739;28;20057;-62
2023/01/13 09:32:13;;;;;;;26.17;5.20;;;;;;;;;;4973930;28;20125;-62
2023/01/13 09:37:24;;;;;;;21.15;3.70;;;;;;;;;;5006312;23;20061;-62
2023/01/13 09:39:50;;;;;;;24.50;3.83;;;;;;;;;;4994398;28;20174;-62
2023/01/13 09:45:16;;;;;;;25.10;5.15;;;;;;;;;;4994751;28;20537;-62
2023/01/13 09:47:57;;;;;;;13.77;3.42;;;;;;;;;;4988615;28;20400;-62
2023/01/13 09:50:28;;;;;;;16.65;2.10;;;;;;;;;;4995084;28;20108;-62
2023/01/13 09:52:55;;;;;;;19.58;2.45;;;;;;;;;;4993103;28;20096;-62
2023/01/13 09:55:39;;;;;;;24.17;3.88;;;;;;;;;;4994920;28;20051;-62
2023/01/13 09:58:13;;;;;;;22.70;4.30;;;;;;;;;;4993892;28;20050;-62
2023/01/13 10:00:43;;;;;;;25.00;2.58;;;;;;;;;;4993583;28;20053;-62
2023/01/13 10:03:12;;;;;;;31.95;4.43;;;;;;;;;;4992253;28;20038;-62
2023/01/13 10:05:40;;;;;;;25.23;3.85;;;;;;;;;;4993494;28;20491;-62
2023/01/13 10:08:15;;;;;;;17.90;2.97;;;;;;;;;;4976982;28;20050;-62
2023/01/13 10:10:46;;;;;;;26.40;4.75;;;;;;;;;;4992464;28;20050;-63
2023/01/13 10:13:18;;;;;;;22.10;3.67;;;;;;;;;;4992853;28;20046;-63
2023/01/13 10:15:51;;;;;;;22.65;4.07;;;;;;;;;;4987559;28;20105;-63
2023/01/13 10:18:21;;;;;;;23.85;4.25;;;;;;;;;;4992013;28;20515;-62
2023/01/13 10:20:51;;;;;;;19.52;3.22;;;;;;;;;;4991746;28;20125;-62
2023/01/13 10:23:52;;;;;;;;;;;7.80;99.90;;;;;;4994115;28;20414;-62
2023/01/13 10:26:23;;;;;;;23.02;3.25;;;;;;;;;;4933933;29;20009;-62
2023/01/13 10:28:53;;;;;;;14.27;3.22;;;;;;;;;;4918023;29;20064;-62
2023/01/13 10:31:20;;;;;;;22.33;4.47;;;;;;;;;;4933844;29;20052;-62
2023/01/13 10:33:46;;;;;;;13.52;2.22;;;;;;;;;;4932856;29;20083;-62
2023/01/13 10:36:21;;;;;;;24.27;3.83;;;;;;;;;;4931477;29;20039;-62
2023/01/13 10:38:49;;;;;;;19.02;3.15;;;;;;;;;;4911109;29;20492;-62
2023/01/13 10:41:15;;;;;;;18.13;3.03;;;;;;;;;;4920568;29;20060;-62
2023/01/13 10:44:04;;;;;;;18.38;3.25;;;;;;;;;;4913431;29;20044;-62
2023/01/13 10:46:31;;;;;;;18.40;3.30;;;;;;;;;;4882233;29;20085;-62
2023/01/13 10:49:02;;;;;;;15.73;2.42;;;;;;;;;;4914381;29;20123;-62
2023/01/13 10:51:42;;;;;;;22.52;4.03;;;;;;;;;;4913962;29;20048;-63
2023/01/13 10:54:11;;;;;;;13.50;2.97;;;;;;;;;;4914446;29;20051;-62
2023/01/13 10:56:38;;;;;;;16.92;2.92;;;;;;;;;;4897853;29;20076;-62
2023/01/13 10:59:23;;;;;;;17.73;3.13;;;;;;;;;;4912746;28;20052;-62
2023/01/13 11:01:56;;;;;;;16.05;2.58;;;;;;;;;;4974017;28;20392;-62
2023/01/13 11:04:34;;;;;;;14.02;2.92;;;;;;;;;;4976139;28;20515;-62
2023/01/13 11:07:00;;;;;;;11.43;2.15;;;;;;;;;;4973234;28;20499;-62
2023/01/13 11:09:28;;;;;;;20.15;2.80;;;;;;;;;;4972963;28;20070;-63
2023/01/13 11:11:55;;;;;;;18.35;2.47;;;;;;;;;;4971560;28;20801;-62
2023/01/13 11:14:40;;;;;;;14.70;3.20;;;;;;;;;;4972033;28;20050;-62
2023/01/13 11:17:12;;;;;;;17.70;2.70;;;;;;;;;;4973061;28;20130;-62
2023/01/13 11:19:41;;;;;;;20.83;2.53;;;;;;;;;;4976475;28;20038;-62
2023/01/13 11:22:16;;;;;;;18.00;2.78;;;;;;;;;;4972445;28;20038;-62
2023/01/13 11:24:49;;;;;;;20.58;4.40;;;;;;;;;;4972396;28;20487;-62
2023/01/13 11:27:29;;;;;;;15.07;2.80;;;;;;;;;;4973500;28;20478;-62
2023/01/13 11:29:59;;;;;;;15.63;1.92;;;;;;;;;;4973876;28;20058;-62
2023/01/13 11:32:27;;;;;;;20.35;2.67;;;;;;;;;;4973767;28;20109;-62
2023/01/13 11:34:55;;;;;;;20.23;3.08;;;;;;;;;;4971622;28;20126;-62
2023/01/13 11:37:24;;;;;;;13.50;3.15;;;;;;;;;;4995583;28;20482;-63
2023/01/13 11:39:55;;;;;;;22.08;2.42;;;;;;;;;;4997103;28;20054;-62
2023/01/13 11:42:36;;;;;;;;;;;8.80;99.90;;;;;;4992804;28;20105;-62
2023/01/13 11:45:23;;;;;;;16.77;2.30;;;;;;;;;;4971626;28;19926;-62
2023/01/13 11:47:51;;;;;;;21.48;2.22;;;;;;;;;;4973128;28;20038;-62
2023/01/13 11:50:30;;;;;;;12.55;2.75;;;;;;;;;;4989314;28;20125;-62
2023/01/13 11:53:01;;;;;;;20.67;4.20;;;;;;;;;;4991857;28;20503;-62
2023/01/13 11:55:31;;;;;;;21.58;2.85;;;;;;;;;;4987455;28;20465;-62
2023/01/13 11:58:15;;;;;;;12.18;2.90;;;;;;;;;;4983798;28;20042;-62
2023/01/13 12:00:47;;;;;;;15.35;2.15;;;;;;;;;;4987608;28;20514;-63
2023/01/13 12:03:13;;;;;;;9.95;1.92;;;;;;;;;;4979591;28;20055;-62
2023/01/13 12:05:40;;;;;;;10.68;2.53;;;;;;;;;;4980122;28;20044;-63
2023/01/13 12:08:26;;;;;;;13.93;1.90;;;;;;;;;;4998465;28;20078;-62
2023/01/13 12:11:01;;;;;;;9.25;1.83;;;;;;;;;;5004336;28;20128;-63
2023/01/13 12:13:27;;;;;;;16.30;2.83;;;;;;;;;;4984679;28;20046;-62
2023/01/13 12:16:08;;;;;;;9.45;2.10;;;;;;;;;;4974003;28;20047;-62
2023/01/13 12:18:42;;;;;;;14.25;2.30;;;;;;;;;;4990384;28;20035;-62
2023/01/13 12:21:14;;;;;;;8.55;1.88;;;;;;;;;;4990819;28;20038;-62
2023/01/13 12:23:43;;;;;;;8.27;1.88;;;;;;;;;;4992381;28;20054;-63
2023/01/13 12:26:11;;;;;;;13.20;2.72;;;;;;;;;;4973987;28;20129;-62
2023/01/13 12:28:42;;;;;;;7.50;1.67;;;;;;;;;;4994833;28;20573;-62
2023/01/13 12:31:08;;;;;;;11.15;2.05;;;;;;;;;;4994195;28;20046;-62
2023/01/13 12:33:40;;;;;;;13.38;2.95;;;;;;;;;;4962820;28;20054;-62
2023/01/13 12:36:06;;;;;;;8.50;1.90;;;;;;;;;;4976660;28;20052;-62
2023/01/13 12:38:35;;;;;;;18.58;2.25;;;;;;;;;;4996313;28;20664;-63
2023/01/13 12:41:13;;;;;;;10.27;2.20;;;;;;;;;;4994828;28;20096;-62
2023/01/13 12:46:26;;;;;;;8.02;1.77;;;;;;;;;;4990341;28;20082;-62
2023/01/13 12:48:55;;;;;;;10.10;1.83;;;;;;;;;;4994361;28;20148;-62
2023/01/13 12:51:22;;;;;;;12.82;2.40;;;;;;;;;;4996174;28;20479;-62
2023/01/13 12:53:48;;;;;;;12.65;2.17;;;;;;;;;;4986168;28;20074;-62
2023/01/13 12:56:44;;;;;;;16.10;2.17;;;9.40;99.90;;;;;;4985562;28;20046;-62
2023/01/13 12:59:20;;;;;;;9.23;1.65;;;;;;;;;;4995356;28;20112;-62
2023/01/13 13:01:47;;;;;;;9.43;2.10;;;;;;;;;;4980427;28;20041;-62
2023/01/13 13:04:22;;;;;;;10.90;2.08;;;;;;;;;;5015373;23;20070;-62
2023/01/13 13:06:51;;;;;;;11.93;2.05;;;;;;;;;;5013644;23;20053;-62
2023/01/13 13:09:30;;;;;;;15.68;4.05;;;;;;;;;;5014830;28;20054;-62
2023/01/13 13:14:37;;;;;;;11.95;2.40;;;;;;;;;;5006102;28;20471;-62
2023/01/13 13:17:04;;;;;;;18.60;3.70;;;;;;;;;;4996884;28;20084;-62
2023/01/13 13:19:30;;;;;;;11.23;1.85;;;;;;;;;;5014852;28;20050;-62
2023/01/13 13:25:03;;;;;;;16.20;2.15;;;;;;;;;;4959303;23;20057;-62
2023/01/13 13:27:49;;;;;;;15.98;2.65;;;;;;;;;;5014466;28;20048;-62
2023/01/13 13:30:16;;;;;;;16.88;2.45;;;;;;;;;;5014831;28;20042;-62
2023/01/13 13:32:54;;;;;;;13.32;2.40;;;;;;;;;;5012488;28;20167;-62
2023/01/13 13:35:20;;;;;;;9.55;1.95;;;;;;;;;;5014799;28;20038;-62
2023/01/13 13:49:07;;;;;;;7.93;1.90;;;;;;;;;;4999851;28;20112;-62
2023/01/13 13:51:37;;;;;;;19.30;3.63;;;;;;;;;;5011585;28;20393;-62
2023/01/13 13:54:07;;;;;;;15.90;3.03;;;;;;;;;;5013104;28;20121;-62
2023/01/13 13:56:37;;;;;;;12.13;3.17;;;;;;;;;;5013130;28;20124;-62
2023/01/13 13:59:04;;;;;;;15.60;3.65;;;;;;;;;;5013613;28;20069;-62
2023/01/13 14:01:34;;;;;;;13.18;2.95;;;;;;;;;;5004962;28;20042;-62
2023/01/13 14:04:13;;;;;;;11.35;2.60;;;;;;;;;;5003281;28;20088;-62
2023/01/13 14:07:17;;;;;;;10.85;2.10;;;9.30;99.90;;;;;;5012326;28;20044;-63
2023/01/13 14:09:47;;;;;;;9.98;2.03;;;;;;;;;;5002098;28;20047;-62
2023/01/13 14:12:18;;;;;;;10.00;1.80;;;;;;;;;;5011010;28;20544;-62
2023/01/13 14:14:48;;;;;;;;;;;9.30;99.90;;;;;;5015667;28;20042;-63
2023/01/13 14:17:19;;;;;;;5.72;1.58;;;;;;;;;;5012406;28;19978;-62
2023/01/13 14:19:50;;;;;;;14.23;3.10;;;;;;;;;;5026352;28;20048;-62
2023/01/13 14:22:16;;;;;;;10.85;2.38;;;;;;;;;;5014613;28;20474;-62
2023/01/13 14:24:48;;;;;;;14.07;3.20;;;;;;;;;;5013032;28;20050;-62
2023/01/13 14:27:15;;;;;;;13.32;2.08;;;;;;;;;;5013924;28;20064;-62
2023/01/13 14:29:41;;;;;;;11.00;3.15;;;;;;;;;;5012037;28;20037;-63
2023/01/13 14:32:08;;;;;;;12.82;3.15;;;;;;;;;;5011683;28;20066;-63
2023/01/13 14:34:35;;;;;;;10.50;1.92;;;;;;;;;;5013487;28;20461;-62
2023/01/13 14:37:02;;;;;;;15.18;2.67;;;;;;;;;;5012518;28;20059;-62
2023/01/13 14:39:33;;;;;;;14.90;2.03;;;;;;;;;;5011191;28;20517;-62
2023/01/13 14:42:00;;;;;;;10.98;2.25;;;;;;;;;;5011679;28;20045;-62
2023/01/13 14:44:30;;;;;;;7.63;2.20;;;;;;;;;;5011515;28;20034;-62
2023/01/13 14:46:58;;;;;;;17.60;3.35;;;;;;;;;;5011391;28;20079;-62
2023/01/13 14:49:28;;;;;;;13.52;2.85;;;;;;;;;;5011657;28;20045;-62
2023/01/13 14:52:02;;;;;;;9.27;3.33;;;;;;;;;;5009233;28;20604;-62
2023/01/13 14:54:40;;;;;;;17.15;2.70;;;;;;;;;;4993752;28;20125;-62
2023/01/13 14:57:15;;;;;;;12.57;2.00;;;;;;;;;;4993664;28;20053;-62
2023/01/13 14:59:44;;;;;;;12.32;1.90;;;;;;;;;;5024676;28;20133;-63
2023/01/13 15:02:31;;;;;;;7.32;2.05;;;;;;;;;;5012100;28;20045;-62
2023/01/13 15:04:58;;;;;;;14.88;1.98;;;;;;;;;;5011650;28;20124;-62
2023/01/13 15:07:28;;;;;;;8.07;1.55;;;;;;;;;;5011092;28;20156;-62
2023/01/13 15:09:58;;;;;;;;;;;8.70;99.90;;;;;;5012556;28;20045;-61
2023/01/13 15:12:30;;;;;;;13.48;4.70;;;;;;;;;;5011379;28;19917;-62
2023/01/13 15:14:56;;;;;;;16.23;4.50;;;;;;;;;;5012602;28;20049;-62
2023/01/13 15:17:23;;;;;;;12.65;2.83;;;;;;;;;;5012761;28;20560;-61
2023/01/13 15:19:49;;;;;;;9.55;2.22;;;;;;;;;;5008321;28;20125;-61
2023/01/13 15:22:15;;;;;;;8.27;1.60;;;;;;;;;;5010340;28;20073;-61
2023/01/13 15:24:41;;;;;;;14.98;2.13;;;;;;;;;;5011485;28;20088;-62
2023/01/13 15:27:14;;;;;;;9.20;1.88;;;;;;;;;;5008902;28;20100;-62
2023/01/13 15:29:40;;;;;;;16.58;2.50;;;;;;;;;;5010754;28;20554;-63
2023/01/13 15:32:09;;;;;;;12.00;2.05;;;;;;;;;;5019577;28;20122;-61
2023/01/13 15:34:35;;;;;;;12.38;1.90;;;;;;;;;;5021455;28;20474;-62
2023/01/13 15:37:01;;;;;;;14.93;2.08;;;;;;;;;;5011973;28;20049;-61
2023/01/13 15:39:27;;;;;;;13.55;2.03;;;;;;;;;;5011520;28;20042;-61
2023/01/13 15:47:24;;;;;;;13.68;3.08;;;;;;;;;;4992816;28;20046;-62
2023/01/13 15:49:50;;;;;;;14.57;2.80;;;;;;;;;;4991917;28;20038;-62
2023/01/13 15:52:24;;;;;;;12.57;1.85;;;;;;;;;;5011540;28;20046;-62